Terminal Aerodrome Forecast
Issued by NWS Shreveport, LA

Home | Current Version | Previous Version | Text Only | Print | Product List | Glossary On
Versions: 1 2 3 4 5 6 7 8 9 10 11 12 13
000
FTUS44 KSHV 271721
TAFTXK
TAF
KTXK 271721Z 2718/2818 24010KT P6SM SKC
     FM280100 19008KT P6SM SCT250
     FM280900 21006KT P6SM BKN100 BKN250
     FM281300 23010KT P6SM VCSH BKN250
     FM281600 25012G18KT P6SM VCTS SCT050CB BKN250=

USA.gov is the U.S. government's official web portal to all federal, state and local government web resources and services.